createdAt,value
2019-05-12T00:00:39.258Z,1015.63
2019-05-12T00:01:38.965Z,1015.66
2019-05-12T00:02:39.662Z,1015.64
2019-05-12T00:03:37.894Z,1015.68
2019-05-12T00:04:38.497Z,1015.66
2019-05-12T00:05:38.271Z,1015.69
2019-05-12T00:06:38.711Z,1015.69
2019-05-12T00:07:38.340Z,1015.71
2019-05-12T00:08:38.212Z,1015.70
2019-05-12T00:09:38.830Z,1015.71
2019-05-12T00:10:38.791Z,1015.72
2019-05-12T00:11:37.993Z,1015.71
2019-05-12T00:12:38.558Z,1015.74
2019-05-12T00:13:38.548Z,1015.71
2019-05-12T00:14:38.143Z,1015.72
2019-05-12T00:15:38.513Z,1015.72
2019-05-12T00:16:38.445Z,1015.72
2019-05-12T00:17:38.847Z,1015.72
2019-05-12T00:18:37.876Z,1015.73
2019-05-12T00:19:37.813Z,1015.78
2019-05-12T00:20:38.687Z,1015.82
2019-05-12T00:21:39.724Z,1015.78
2019-05-12T00:22:38.172Z,1015.79
2019-05-12T00:23:38.213Z,1015.77
2019-05-12T00:24:38.304Z,1015.82
2019-05-12T00:25:38.723Z,1015.81
2019-05-12T00:26:38.315Z,1015.79
2019-05-12T00:27:38.846Z,1015.87
2019-05-12T00:28:37.689Z,1015.87
2019-05-12T00:29:37.869Z,1015.84
2019-05-12T00:30:38.804Z,1015.89
2019-05-12T00:31:38.262Z,1015.90
2019-05-12T00:32:38.584Z,1015.88
2019-05-12T00:33:38.545Z,1015.91
2019-05-12T00:34:38.554Z,1015.89
2019-05-12T00:35:38.092Z,1015.91
2019-05-12T00:36:37.959Z,1015.88
2019-05-12T00:37:38.197Z,1015.88
2019-05-12T00:38:38.164Z,1015.88
2019-05-12T00:39:38.235Z,1015.89
2019-05-12T00:40:39.312Z,1015.91
2019-05-12T00:41:39.004Z,1015.90
2019-05-12T00:42:38.105Z,1015.95
2019-05-12T00:43:38.252Z,1015.96
2019-05-12T00:44:39.046Z,1015.96
2019-05-12T00:45:38.564Z,1015.99
2019-05-12T00:46:38.557Z,1016.02
2019-05-12T00:47:38.906Z,1016.03
2019-05-12T00:48:37.615Z,1016.05
2019-05-12T00:49:37.926Z,1016.06
2019-05-12T00:50:38.166Z,1016.05
2019-05-12T00:51:38.428Z,1016.05
2019-05-12T00:52:38.608Z,1016.09
2019-05-12T00:53:40.882Z,1016.09
2019-05-12T00:54:37.582Z,1016.07
2019-05-12T00:55:38.136Z,1016.10
2019-05-12T00:56:38.960Z,1016.09
2019-05-12T00:57:38.265Z,1016.06
2019-05-12T00:58:38.230Z,1016.08
2019-05-12T00:59:38.270Z,1016.09
2019-05-12T01:00:39.959Z,1016.04
2019-05-12T01:01:38.040Z,1016.07
2019-05-12T01:02:37.952Z,1016.05
2019-05-12T01:03:38.169Z,1016.08
2019-05-12T01:04:38.122Z,1016.12
2019-05-12T01:05:38.287Z,1016.12
2019-05-12T01:06:38.658Z,1016.17
2019-05-12T01:07:38.189Z,1016.17
2019-05-12T01:08:38.305Z,1016.14
2019-05-12T01:09:38.549Z,1016.18
2019-05-12T01:10:38.902Z,1016.18
2019-05-12T01:11:37.891Z,1016.21
2019-05-12T01:12:38.304Z,1016.22
2019-05-12T01:13:38.248Z,1016.24
2019-05-12T01:14:38.347Z,1016.32
2019-05-12T01:15:37.761Z,1016.24
2019-05-12T01:16:38.521Z,1016.27
2019-05-12T01:17:40.072Z,1016.27
2019-05-12T01:18:38.431Z,1016.37
2019-05-12T01:19:37.473Z,1016.32
2019-05-12T01:20:38.767Z,1016.32
2019-05-12T01:21:37.628Z,1016.31
2019-05-12T01:22:38.360Z,1016.35
2019-05-12T01:23:50.202Z,1016.34
2019-05-12T01:24:37.908Z,1016.39
2019-05-12T01:25:36.358Z,1016.37
2019-05-12T01:26:38.561Z,1016.41
2019-05-12T01:27:38.140Z,1016.42
2019-05-12T01:28:38.295Z,1016.44
2019-05-12T01:29:38.423Z,1016.44
2019-05-12T01:30:38.691Z,1016.48
2019-05-12T01:31:37.799Z,1016.49
2019-05-12T01:32:38.173Z,1016.53
2019-05-12T01:33:38.083Z,1016.56
2019-05-12T01:34:38.235Z,1016.57
2019-05-12T01:35:38.438Z,1016.62
2019-05-12T01:36:38.132Z,1016.62
2019-05-12T01:37:38.317Z,1016.63
2019-05-12T01:38:37.941Z,1016.64
2019-05-12T01:39:38.252Z,1016.69
2019-05-12T01:40:38.521Z,1016.70
2019-05-12T01:41:36.056Z,1016.70
2019-05-12T01:42:38.270Z,1016.72
2019-05-12T01:43:38.079Z,1016.71
2019-05-12T01:44:38.214Z,1016.73
2019-05-12T01:45:37.992Z,1016.72
2019-05-12T01:46:38.158Z,1016.75
2019-05-12T01:47:38.134Z,1016.77
2019-05-12T01:48:37.770Z,1016.79
2019-05-12T01:49:38.241Z,1016.82
2019-05-12T01:50:38.304Z,1016.78
2019-05-12T01:51:38.257Z,1016.84
2019-05-12T01:52:35.845Z,1016.85
2019-05-12T01:53:37.865Z,1016.88
2019-05-12T01:54:37.956Z,1016.81
2019-05-12T01:55:35.789Z,1016.83
2019-05-12T01:56:38.116Z,1016.90
2019-05-12T01:57:38.270Z,1016.89
2019-05-12T01:58:38.029Z,1016.94
2019-05-12T01:59:38.017Z,1016.95
2019-05-12T02:00:38.366Z,1017.02
2019-05-12T02:01:35.677Z,1017.01
2019-05-12T02:02:35.657Z,1017.02
2019-05-12T02:03:37.630Z,1017.01
2019-05-12T02:04:37.565Z,1017.02
2019-05-12T02:05:37.946Z,1017.01
2019-05-12T02:06:38.385Z,1017.03
2019-05-12T02:07:35.561Z,1017.04
2019-05-12T02:08:35.561Z,1017.08
2019-05-12T02:09:35.530Z,1017.11
2019-05-12T02:10:35.508Z,1017.13
2019-05-12T02:11:37.817Z,1017.12
2019-05-12T02:12:38.143Z,1017.17
2019-05-12T02:13:37.997Z,1017.18
2019-05-12T02:14:35.428Z,1017.17
2019-05-12T02:15:35.409Z,1017.13
2019-05-12T02:16:35.392Z,1017.19
2019-05-12T02:17:35.373Z,1017.18
2019-05-12T02:18:35.357Z,1017.20
2019-05-12T02:19:35.333Z,1017.23
2019-05-12T02:20:35.313Z,1017.24
2019-05-12T02:21:35.300Z,1017.22
2019-05-12T02:22:35.277Z,1017.26
2019-05-12T02:23:35.257Z,1017.20
2019-05-12T02:24:35.238Z,1017.21
2019-05-12T02:25:37.310Z,1017.26
2019-05-12T02:26:35.201Z,1017.23
2019-05-12T02:27:35.189Z,1017.22
2019-05-12T02:28:35.162Z,1017.30
2019-05-12T02:29:35.144Z,1017.30
2019-05-12T02:30:35.132Z,1017.25
2019-05-12T02:31:35.126Z,1017.23
2019-05-12T02:32:44.545Z,1017.24
2019-05-12T02:33:35.695Z,1017.27
2019-05-12T02:34:35.193Z,1017.26
2019-05-12T02:35:35.637Z,1017.30
2019-05-12T02:36:35.011Z,1017.31
2019-05-12T02:37:35.948Z,1017.29
2019-05-12T02:38:34.973Z,1017.27
2019-05-12T02:39:35.402Z,1017.31
2019-05-12T02:40:35.288Z,1017.34
2019-05-12T02:41:34.920Z,1017.38
2019-05-12T02:42:35.078Z,1017.38
2019-05-12T02:43:34.980Z,1017.36
2019-05-12T02:44:34.869Z,1017.41
2019-05-12T02:45:35.873Z,1017.39
2019-05-12T02:46:35.185Z,1017.35
2019-05-12T02:47:34.954Z,1017.43
2019-05-12T02:48:35.593Z,1017.46
2019-05-12T02:49:35.011Z,1017.45
2019-05-12T02:50:35.552Z,1017.47
2019-05-12T02:51:35.332Z,1017.44
2019-05-12T02:52:34.981Z,1017.48
2019-05-12T02:53:35.245Z,1017.50
2019-05-12T02:54:50.697Z,1017.47
2019-05-12T02:55:35.479Z,1017.52
2019-05-12T02:56:35.698Z,1017.52
2019-05-12T02:57:34.611Z,1017.50
2019-05-12T02:58:34.882Z,1017.53
2019-05-12T02:59:34.932Z,1017.51
2019-05-12T03:00:35.573Z,1017.54
2019-05-12T03:01:34.822Z,1017.54
2019-05-12T03:02:34.850Z,1017.57
2019-05-12T03:03:35.313Z,1017.52
2019-05-12T03:04:35.069Z,1017.58
2019-05-12T03:05:35.133Z,1017.55
2019-05-12T03:06:36.151Z,1017.58
2019-05-12T03:07:34.732Z,1017.62
2019-05-12T03:08:35.033Z,1017.60
2019-05-12T03:09:35.292Z,1017.64
2019-05-12T03:10:35.474Z,1017.63
2019-05-12T03:11:35.467Z,1017.65
2019-05-12T03:12:34.596Z,1017.62
2019-05-12T03:13:34.765Z,1017.67
2019-05-12T03:14:40.280Z,1017.69
2019-05-12T03:15:36.340Z,1017.68
2019-05-12T03:16:35.104Z,1017.69
2019-05-12T03:17:35.546Z,1017.69
2019-05-12T03:18:34.879Z,1017.69
2019-05-12T03:19:34.624Z,1017.70
2019-05-12T03:20:35.422Z,1017.74
2019-05-12T03:21:35.209Z,1017.69
2019-05-12T03:22:35.281Z,1017.75
2019-05-12T03:23:35.203Z,1017.76
2019-05-12T03:24:34.310Z,1017.77
2019-05-12T03:25:35.708Z,1017.79
2019-05-12T03:26:34.805Z,1017.77
2019-05-12T03:27:35.136Z,1017.79
2019-05-12T03:28:35.560Z,1017.78
2019-05-12T03:29:34.530Z,1017.80
2019-05-12T03:30:38.294Z,1017.84
2019-05-12T03:31:39.877Z,1017.83
2019-05-12T03:32:37.937Z,1017.89
2019-05-12T03:33:41.964Z,1017.86
2019-05-12T03:34:38.427Z,1017.86
2019-05-12T03:35:41.568Z,1017.90
2019-05-12T03:36:41.141Z,1017.89
2019-05-12T03:37:35.331Z,1017.91
2019-05-12T03:38:35.982Z,1017.95
2019-05-12T03:39:34.444Z,1017.97
2019-05-12T03:40:37.541Z,1018.00
2019-05-12T03:41:34.863Z,1018.03
2019-05-12T03:42:35.454Z,1018.03
2019-05-12T03:43:35.124Z,1018.04
2019-05-12T03:44:35.258Z,1018.02
2019-05-12T03:45:35.920Z,1018.02
2019-05-12T03:46:35.279Z,1018.07
2019-05-12T03:47:35.561Z,1018.09
2019-05-12T03:48:34.958Z,1018.12
2019-05-12T03:49:34.757Z,1018.16
2019-05-12T03:50:35.450Z,1018.17
2019-05-12T03:51:34.934Z,1018.20
2019-05-12T03:52:34.915Z,1018.21
2019-05-12T03:53:35.243Z,1018.19
2019-05-12T03:54:34.969Z,1018.23
2019-05-12T03:55:38.149Z,1018.19
2019-05-12T03:56:34.682Z,1018.24
2019-05-12T03:57:34.544Z,1018.27
2019-05-12T03:58:34.585Z,1018.28
2019-05-12T03:59:34.858Z,1018.27
2019-05-12T04:00:35.678Z,1018.29
2019-05-12T04:01:36.354Z,1018.28
2019-05-12T04:02:34.158Z,1018.28
2019-05-12T04:03:34.578Z,1018.31
2019-05-12T04:04:34.756Z,1018.26
2019-05-12T04:05:34.867Z,1018.29
2019-05-12T04:06:34.643Z,1018.34
2019-05-12T04:07:34.514Z,1018.34
2019-05-12T04:08:34.690Z,1018.35
2019-05-12T04:09:34.873Z,1018.38
2019-05-12T04:10:35.343Z,1018.38
2019-05-12T04:11:35.673Z,1018.38
2019-05-12T04:12:34.629Z,1018.46
2019-05-12T04:13:34.164Z,1018.46
2019-05-12T04:14:34.550Z,1018.48
2019-05-12T04:15:34.666Z,1018.50
2019-05-12T04:16:36.408Z,1018.50
2019-05-12T04:17:34.957Z,1018.54
2019-05-12T04:18:34.821Z,1018.59
2019-05-12T04:19:34.420Z,1018.59
2019-05-12T04:20:35.670Z,1018.63
2019-05-12T04:21:35.072Z,1018.68
2019-05-12T04:22:35.255Z,1018.75
2019-05-12T04:23:34.885Z,1018.75
2019-05-12T04:24:35.888Z,1018.74
2019-05-12T04:25:47.793Z,1018.76
2019-05-12T04:26:36.324Z,1018.81
2019-05-12T04:27:34.920Z,1018.81
2019-05-12T04:28:35.080Z,1018.82
2019-05-12T04:29:34.923Z,1018.85
2019-05-12T04:30:35.408Z,1018.82
2019-05-12T04:31:34.753Z,1018.85
2019-05-12T04:32:35.682Z,1018.93
2019-05-12T04:33:34.679Z,1018.93
2019-05-12T04:34:34.291Z,1018.96
2019-05-12T04:35:34.814Z,1018.97
2019-05-12T04:36:35.517Z,1018.99
2019-05-12T04:37:35.209Z,1018.99
2019-05-12T04:38:35.506Z,1018.99
2019-05-12T04:39:34.141Z,1019.01
2019-05-12T04:40:35.993Z,1019.00
2019-05-12T04:41:35.248Z,1019.03
2019-05-12T04:42:34.948Z,1019.08
2019-05-12T04:43:35.277Z,1019.12
2019-05-12T04:44:34.692Z,1019.12
2019-05-12T04:45:34.729Z,1019.16
2019-05-12T04:46:34.650Z,1019.18
2019-05-12T04:47:34.985Z,1019.18
2019-05-12T04:48:35.780Z,1019.24
2019-05-12T04:49:34.559Z,1019.25
2019-05-12T04:50:35.324Z,1019.28
2019-05-12T04:51:34.923Z,1019.30
2019-05-12T04:52:35.127Z,1019.29
2019-05-12T04:53:35.041Z,1019.34
2019-05-12T04:54:35.341Z,1019.36
2019-05-12T04:55:35.251Z,1019.37
2019-05-12T04:56:35.452Z,1019.41
2019-05-12T04:57:34.698Z,1019.42
2019-05-12T04:58:35.055Z,1019.45
2019-05-12T04:59:34.474Z,1019.45
2019-05-12T05:00:34.937Z,1019.51
2019-05-12T05:01:34.698Z,1019.50
2019-05-12T05:02:36.269Z,1019.52
2019-05-12T05:03:34.935Z,1019.55
2019-05-12T05:04:34.707Z,1019.55
2019-05-12T05:05:35.178Z,1019.55
2019-05-12T05:06:34.218Z,1019.55
2019-05-12T05:07:32.134Z,1019.56
2019-05-12T05:08:34.750Z,1019.56
2019-05-12T05:09:34.822Z,1019.62
2019-05-12T05:10:34.165Z,1019.66
2019-05-12T05:11:34.593Z,1019.70
2019-05-12T05:12:34.512Z,1019.65
2019-05-12T05:13:36.653Z,1019.71
2019-05-12T05:14:34.066Z,1019.75
2019-05-12T05:15:34.809Z,1019.76
2019-05-12T05:16:34.372Z,1019.79
2019-05-12T05:17:34.529Z,1019.79
2019-05-12T05:18:34.288Z,1019.85
2019-05-12T05:19:33.728Z,1019.82
2019-05-12T05:20:34.244Z,1019.79
2019-05-12T05:21:34.251Z,1019.87
2019-05-12T05:22:33.336Z,1019.90
2019-05-12T05:23:33.513Z,1019.91
2019-05-12T05:24:33.857Z,1019.93
2019-05-12T05:25:33.951Z,1019.98
2019-05-12T05:26:34.926Z,1019.97
2019-05-12T05:27:33.887Z,1019.97
2019-05-12T05:28:33.851Z,1020.04
2019-05-12T05:29:33.566Z,1020.05
2019-05-12T05:30:33.999Z,1020.04
2019-05-12T05:31:33.712Z,1020.07
2019-05-12T05:32:33.841Z,1020.09
2019-05-12T05:33:33.869Z,1020.10
2019-05-12T05:34:31.636Z,1020.16
2019-05-12T05:35:35.156Z,1020.15
2019-05-12T05:36:34.350Z,1020.20
2019-05-12T05:37:36.942Z,1020.23
2019-05-12T05:38:31.556Z,1020.27
2019-05-12T05:39:35.743Z,1020.23
2019-05-12T05:40:31.523Z,1020.27
2019-05-12T05:41:31.508Z,1020.28
2019-05-12T05:42:33.400Z,1020.32
2019-05-12T05:43:33.311Z,1020.33
2019-05-12T05:44:36.318Z,1020.31
2019-05-12T05:45:31.425Z,1020.32
2019-05-12T05:46:33.649Z,1020.38
2019-05-12T05:47:33.480Z,1020.40
2019-05-12T05:48:34.460Z,1020.41
2019-05-12T05:49:31.354Z,1020.46
2019-05-12T05:50:31.335Z,1020.54
2019-05-12T05:51:33.532Z,1020.54
2019-05-12T05:52:37.028Z,1020.61
2019-05-12T05:53:33.430Z,1020.58
2019-05-12T05:54:35.215Z,1020.64
2019-05-12T05:55:33.460Z,1020.70
2019-05-12T05:56:41.418Z,1020.78
2019-05-12T05:57:31.216Z,1020.78
2019-05-12T05:58:33.781Z,1020.84
2019-05-12T05:59:35.864Z,1020.79
2019-05-12T06:00:31.152Z,1020.72
2019-05-12T06:01:31.171Z,1020.75
2019-05-12T06:02:33.548Z,1020.75
2019-05-12T06:03:31.100Z,1020.79
2019-05-12T06:04:31.086Z,1020.84
2019-05-12T06:05:31.155Z,1020.87
2019-05-12T06:06:31.048Z,1020.91
2019-05-12T06:07:35.770Z,1020.93
2019-05-12T06:08:31.011Z,1021.05
2019-05-12T06:09:30.998Z,1021.10
2019-05-12T06:10:36.057Z,1021.12
2019-05-12T06:11:30.962Z,1021.13
2019-05-12T06:12:32.927Z,1021.15
2019-05-12T06:13:32.391Z,1021.11
2019-05-12T06:14:30.908Z,1021.16
2019-05-12T06:15:35.814Z,1021.08
2019-05-12T06:16:30.871Z,1021.15
2019-05-12T06:17:30.856Z,1021.21
2019-05-12T06:18:33.284Z,1021.14
2019-05-12T06:19:30.823Z,1021.13
2019-05-12T06:20:30.798Z,1021.12
2019-05-12T06:21:36.299Z,1021.13
2019-05-12T06:22:30.765Z,1021.13
2019-05-12T06:23:34.883Z,1021.17
2019-05-12T06:24:30.728Z,1021.11
2019-05-12T06:25:41.118Z,1021.23
2019-05-12T06:26:34.858Z,1021.23
2019-05-12T06:27:32.857Z,1021.34
2019-05-12T06:28:31.189Z,1021.33
2019-05-12T06:29:30.643Z,1021.36
2019-05-12T06:30:37.511Z,1021.37
2019-05-12T06:31:30.610Z,1021.41
2019-05-12T06:32:30.589Z,1021.35
2019-05-12T06:33:31.505Z,1021.36
2019-05-12T06:34:30.558Z,1021.44
2019-05-12T06:35:30.978Z,1021.42
2019-05-12T06:36:30.519Z,1021.42
2019-05-12T06:37:30.505Z,1021.43
2019-05-12T06:38:31.102Z,1021.43
2019-05-12T06:39:30.467Z,1021.39
2019-05-12T06:40:30.850Z,1021.40
2019-05-12T06:41:30.437Z,1021.42
2019-05-12T06:42:30.417Z,1021.48
2019-05-12T06:43:35.000Z,1021.51
2019-05-12T06:44:30.381Z,1021.48
2019-05-12T06:45:33.981Z,1021.53
2019-05-12T06:46:30.343Z,1021.57
2019-05-12T06:47:30.331Z,1021.59
2019-05-12T06:48:30.435Z,1021.59
2019-05-12T06:49:30.295Z,1021.64
2019-05-12T06:50:36.960Z,1021.64
2019-05-12T06:51:30.261Z,1021.63
2019-05-12T06:52:30.243Z,1021.63
2019-05-12T06:53:31.141Z,1021.68
2019-05-12T06:54:30.207Z,1021.70
2019-05-12T06:55:36.653Z,1021.73
2019-05-12T06:56:30.171Z,1021.76
2019-05-12T06:57:30.159Z,1021.73
2019-05-12T06:58:32.145Z,1021.70
2019-05-12T06:59:30.126Z,1021.75
2019-05-12T07:00:31.901Z,1021.74
2019-05-12T07:01:30.088Z,1021.76
2019-05-12T07:02:34.749Z,1021.73
2019-05-12T07:03:31.505Z,1021.78
2019-05-12T07:04:30.037Z,1021.88
2019-05-12T07:05:33.783Z,1021.91
2019-05-12T07:06:30.009Z,1021.94
2019-05-12T07:07:35.466Z,1021.96
2019-05-12T07:08:32.114Z,1022.05
2019-05-12T07:09:32.515Z,1022.14
2019-05-12T07:10:43.564Z,1022.26
2019-05-12T07:11:41.483Z,1022.35
2019-05-12T07:12:36.519Z,1022.38
2019-05-12T07:13:29.885Z,1022.37
2019-05-12T07:14:29.869Z,1022.41
2019-05-12T07:15:35.747Z,1022.40
2019-05-12T07:16:30.456Z,1022.48
2019-05-12T07:17:29.820Z,1022.53
2019-05-12T07:18:32.866Z,1022.55
2019-05-12T07:19:29.937Z,1022.60
2019-05-12T07:20:35.648Z,1022.72
2019-05-12T07:21:29.756Z,1022.82
2019-05-12T07:22:31.245Z,1023.02
2019-05-12T07:23:30.303Z,1023.29
2019-05-12T07:24:29.709Z,1023.21
2019-05-12T07:25:33.565Z,1022.92
2019-05-12T07:26:29.678Z,1022.82
2019-05-12T07:27:36.634Z,1023.00
2019-05-12T07:28:30.467Z,1023.20
2019-05-12T07:29:29.632Z,1023.53
2019-05-12T07:30:31.909Z,1023.83
2019-05-12T07:31:29.597Z,1023.29
2019-05-12T07:32:29.579Z,1023.77
2019-05-12T07:33:32.788Z,1026.47
2019-05-12T07:34:29.553Z,1028.77
2019-05-12T07:35:29.533Z,1029.90
2019-05-12T07:36:29.521Z,1031.63
2019-05-12T07:37:30.065Z,1039.09
2019-05-12T07:38:29.488Z,1041.93
2019-05-12T07:39:29.474Z,1040.48
2019-05-12T07:40:30.561Z,1040.45
2019-05-12T07:41:29.446Z,1036.16
2019-05-12T07:42:31.543Z,1036.65
2019-05-12T07:43:29.424Z,1041.60
2019-05-12T07:44:34.402Z,1040.82
2019-05-12T07:45:29.395Z,1043.22
2019-05-12T07:46:29.383Z,1046.31
2019-05-12T07:47:29.470Z,1045.14
2019-05-12T07:48:29.362Z,1043.74
2019-05-12T07:49:34.381Z,1041.56
2019-05-12T07:50:29.334Z,1040.90
2019-05-12T07:51:30.451Z,1041.30
2019-05-12T07:52:29.372Z,1041.78
2019-05-12T07:53:29.308Z,1043.10
2019-05-12T07:54:34.602Z,1042.20
2019-05-12T07:55:29.297Z,1041.82
2019-05-12T07:56:32.863Z,1040.55
2019-05-12T07:57:29.272Z,1040.04
2019-05-12T07:58:29.258Z,1038.86
2019-05-12T07:59:35.678Z,1038.38
2019-05-12T08:00:29.249Z,1038.10
2019-05-12T08:01:29.240Z,1037.63
2019-05-12T08:02:31.810Z,1037.04
2019-05-12T08:03:29.228Z,1037.44
2019-05-12T08:04:31.777Z,1037.57
2019-05-12T08:05:29.211Z,1036.99
2019-05-12T08:06:32.566Z,1035.44
2019-05-12T08:07:30.011Z,1034.37
2019-05-12T08:08:29.204Z,1033.53
2019-05-12T08:09:32.559Z,1032.00
2019-05-12T08:10:29.184Z,1031.36
2019-05-12T08:11:36.708Z,1030.88
2019-05-12T08:12:29.179Z,1030.55
2019-05-12T08:13:31.302Z,1030.45
2019-05-12T08:14:29.568Z,1030.54
2019-05-12T08:15:29.163Z,1030.36
2019-05-12T08:16:33.663Z,1029.77
2019-05-12T08:17:29.159Z,1029.02
2019-05-12T08:18:30.534Z,1028.71
2019-05-12T08:19:29.148Z,1028.15
2019-05-12T08:20:29.147Z,1027.43
2019-05-12T08:21:29.142Z,1027.01
2019-05-12T08:22:29.567Z,1026.24
2019-05-12T08:23:29.138Z,1025.91
2019-05-12T08:24:29.158Z,1025.67
2019-05-12T08:25:29.132Z,1025.43
2019-05-12T08:26:29.129Z,1025.13
2019-05-12T08:27:29.128Z,1024.79
2019-05-12T08:28:35.705Z,1024.19
2019-05-12T08:29:29.124Z,1024.29
2019-05-12T08:30:29.121Z,1023.71
2019-05-12T08:31:33.083Z,1024.10
2019-05-12T08:32:29.129Z,1024.15
2019-05-12T08:33:29.117Z,1024.04
2019-05-12T08:34:29.115Z,1023.82
2019-05-12T08:35:34.590Z,1023.74
2019-05-12T08:36:29.113Z,1023.54
2019-05-12T08:37:29.110Z,1023.48
2019-05-12T08:38:29.104Z,1023.63
2019-05-12T08:39:29.108Z,1023.63
2019-05-12T08:40:29.104Z,1023.62
2019-05-12T08:41:29.102Z,1023.68
2019-05-12T08:42:29.102Z,1023.72
2019-05-12T08:43:29.100Z,1023.61
2019-05-12T08:44:33.689Z,1023.72
2019-05-12T08:45:34.100Z,1023.78
2019-05-12T08:46:29.096Z,1023.76
2019-05-12T08:47:34.388Z,1023.75
2019-05-12T08:48:29.128Z,1023.76
2019-05-12T08:49:34.047Z,1023.67
2019-05-12T08:50:31.556Z,1023.71
2019-05-12T08:51:29.089Z,1023.70
2019-05-12T08:52:30.464Z,1023.76
2019-05-12T08:53:29.091Z,1023.75
2019-05-12T08:54:29.096Z,1023.72
2019-05-12T08:55:31.549Z,1023.71
2019-05-12T08:56:29.086Z,1023.67
2019-05-12T08:57:34.835Z,1023.69
2019-05-12T08:58:33.944Z,1023.70
2019-05-12T08:59:29.082Z,1023.71
2019-05-12T09:00:29.078Z,1023.70
2019-05-12T09:01:30.729Z,1023.70
2019-05-12T09:02:29.080Z,1023.71
2019-05-12T09:03:30.401Z,1023.70
2019-05-12T09:04:29.102Z,1023.69
2019-05-12T09:05:35.766Z,1023.64
2019-05-12T09:06:29.075Z,1023.65
2019-05-12T09:07:30.394Z,1023.69
2019-05-12T09:08:29.072Z,1023.67
2019-05-12T09:09:29.074Z,1023.63
2019-05-12T09:10:29.067Z,1023.65
2019-05-12T09:11:29.070Z,1023.65
2019-05-12T09:12:29.068Z,1023.67
2019-05-12T09:13:29.063Z,1023.60
2019-05-12T09:14:35.544Z,1023.63
2019-05-12T09:15:29.064Z,1023.61
2019-05-12T09:16:29.071Z,1023.59
2019-05-12T09:17:29.064Z,1023.66
2019-05-12T09:18:35.089Z,1023.68
2019-05-12T09:19:29.057Z,1023.68
2019-05-12T09:20:29.055Z,1023.74
2019-05-12T09:21:31.573Z,1023.71
2019-05-12T09:22:29.054Z,1023.78
2019-05-12T09:23:32.827Z,1023.69
2019-05-12T09:24:29.055Z,1023.70
2019-05-12T09:25:29.050Z,1023.76
2019-05-12T09:26:29.666Z,1023.75
2019-05-12T09:27:29.048Z,1023.74
2019-05-12T09:28:29.045Z,1023.78
2019-05-12T09:29:29.047Z,1023.78
2019-05-12T09:30:29.041Z,1023.80
2019-05-12T09:31:29.624Z,1023.75
2019-05-12T09:32:29.048Z,1023.72
2019-05-12T09:33:31.881Z,1023.60
2019-05-12T09:34:29.388Z,1023.53
2019-05-12T09:35:34.789Z,1023.46
2019-05-12T09:36:29.037Z,1023.42
2019-05-12T09:37:30.930Z,1023.35
2019-05-12T09:38:29.031Z,1023.33
2019-05-12T09:39:36.416Z,1023.32
2019-05-12T09:40:29.030Z,1023.30
2019-05-12T09:41:34.327Z,1023.26
2019-05-12T09:42:30.176Z,1023.33
2019-05-12T09:43:29.028Z,1023.26
2019-05-12T09:44:30.522Z,1023.30
2019-05-12T09:45:29.027Z,1023.29
2019-05-12T09:46:34.244Z,1023.24
2019-05-12T09:47:29.152Z,1023.24
2019-05-12T09:48:29.014Z,1023.18
2019-05-12T09:49:39.044Z,1023.17
2019-05-12T09:50:29.009Z,1023.24
2019-05-12T09:51:32.912Z,1023.25
2019-05-12T09:52:29.018Z,1023.18
2019-05-12T09:53:29.006Z,1023.19
2019-05-12T09:54:35.589Z,1023.20
2019-05-12T09:55:29.001Z,1023.18
2019-05-12T09:56:29.000Z,1023.20
2019-05-12T09:57:32.432Z,1023.17
2019-05-12T09:58:28.997Z,1023.16
2019-05-12T09:59:28.991Z,1023.18
2019-05-12T10:00:30.430Z,1023.16
2019-05-12T10:01:34.086Z,1023.20
2019-05-12T10:02:28.986Z,1023.19
2019-05-12T10:03:30.951Z,1023.20
2019-05-12T10:04:28.985Z,1023.17
2019-05-12T10:05:30.571Z,1023.20
2019-05-12T10:06:28.977Z,1023.19
2019-05-12T10:07:28.977Z,1023.23
2019-05-12T10:08:29.370Z,1023.32
2019-05-12T10:09:28.973Z,1023.34
2019-05-12T10:10:29.246Z,1023.42
2019-05-12T10:11:28.971Z,1024.19
2019-05-12T10:12:29.889Z,1025.23
2019-05-12T10:13:30.302Z,1025.36
2019-05-12T10:14:28.965Z,1025.36
2019-05-12T10:15:28.963Z,1025.75
2019-05-12T10:16:28.965Z,1025.36
2019-05-12T10:17:30.354Z,1025.09
2019-05-12T10:18:28.960Z,1024.75
2019-05-12T10:19:28.957Z,1025.74
2019-05-12T10:20:29.320Z,1025.79
2019-05-12T10:21:28.963Z,1025.67
2019-05-12T10:22:30.002Z,1025.66
2019-05-12T10:23:28.956Z,1025.67
2019-05-12T10:24:32.457Z,1025.63
2019-05-12T10:25:30.738Z,1025.63
2019-05-12T10:26:28.952Z,1025.65
2019-05-12T10:27:31.938Z,1025.58
2019-05-12T10:28:28.949Z,1025.46
2019-05-12T10:29:30.738Z,1025.45
2019-05-12T10:30:28.954Z,1025.49
2019-05-12T10:31:29.653Z,1025.58
2019-05-12T10:32:28.952Z,1025.61
2019-05-12T10:33:28.957Z,1025.65
2019-05-12T10:34:29.514Z,1025.59
2019-05-12T10:35:28.952Z,1025.62
2019-05-12T10:36:28.952Z,1025.55
2019-05-12T10:37:29.507Z,1025.40
2019-05-12T10:38:28.956Z,1025.39
2019-05-12T10:39:28.952Z,1025.38
2019-05-12T10:40:28.952Z,1025.45
2019-05-12T10:41:28.958Z,1025.45
2019-05-12T10:42:28.956Z,1025.38
2019-05-12T10:43:28.964Z,1025.38
2019-05-12T10:44:36.197Z,1025.40
2019-05-12T10:45:29.979Z,1025.35
2019-05-12T10:46:28.962Z,1025.31
2019-05-12T10:47:28.960Z,1025.13
2019-05-12T10:48:28.963Z,1025.17
2019-05-12T10:49:28.968Z,1025.16
2019-05-12T10:50:28.966Z,1025.05
2019-05-12T10:51:28.965Z,1025.06
2019-05-12T10:52:29.515Z,1025.08
2019-05-12T10:53:28.970Z,1025.00
2019-05-12T10:54:29.387Z,1024.98
2019-05-12T10:55:28.976Z,1024.91
2019-05-12T10:56:28.977Z,1024.87
2019-05-12T10:57:28.975Z,1024.82
2019-05-12T10:58:28.974Z,1024.82
2019-05-12T10:59:33.149Z,1024.82
2019-05-12T11:00:28.976Z,1024.82
2019-05-12T11:01:28.981Z,1024.71
2019-05-12T11:02:30.618Z,1024.75
2019-05-12T11:03:28.984Z,1024.76
2019-05-12T11:04:35.758Z,1024.70
2019-05-12T11:05:28.990Z,1024.70
2019-05-12T11:06:28.988Z,1024.49
2019-05-12T11:07:30.004Z,1024.52
2019-05-12T11:08:28.990Z,1024.45
2019-05-12T11:09:31.634Z,1024.37
2019-05-12T11:10:28.996Z,1024.32
2019-05-12T11:11:32.845Z,1024.39
2019-05-12T11:12:29.351Z,1024.37
2019-05-12T11:13:29.000Z,1024.38
2019-05-12T11:14:30.507Z,1024.46
2019-05-12T11:15:29.007Z,1024.38
2019-05-12T11:16:30.908Z,1024.41
2019-05-12T11:17:29.006Z,1024.39
2019-05-12T11:18:30.595Z,1024.37
2019-05-12T11:19:29.008Z,1024.33
2019-05-12T11:20:29.013Z,1024.36
2019-05-12T11:21:29.014Z,1024.30
2019-05-12T11:22:29.012Z,1024.27
2019-05-12T11:23:29.028Z,1024.39
2019-05-12T11:24:29.025Z,1024.46
2019-05-12T11:25:29.017Z,1024.48
2019-05-12T11:26:29.029Z,1024.43
2019-05-12T11:27:29.028Z,1024.49
2019-05-12T11:28:29.025Z,1024.52
2019-05-12T11:29:42.506Z,1024.48
2019-05-12T11:30:29.114Z,1024.45
2019-05-12T11:31:29.029Z,1024.37
2019-05-12T11:32:36.406Z,1024.42
2019-05-12T11:33:29.038Z,1024.41
2019-05-12T11:34:29.039Z,1024.42
2019-05-12T11:35:29.041Z,1024.42
2019-05-12T11:36:29.146Z,1024.41
2019-05-12T11:37:29.189Z,1024.13
2019-05-12T11:38:29.041Z,1024.56
2019-05-12T11:39:30.692Z,1024.49
2019-05-12T11:40:29.044Z,1024.53
2019-05-12T11:41:29.044Z,1024.51
2019-05-12T11:42:29.047Z,1024.48
2019-05-12T11:43:29.876Z,1024.44
2019-05-12T11:44:29.047Z,1024.52
2019-05-12T11:45:29.058Z,1024.52
2019-05-12T11:46:29.057Z,1024.51
2019-05-12T11:47:29.059Z,1024.58
2019-05-12T11:48:29.058Z,1024.58
2019-05-12T11:49:29.065Z,1024.63
2019-05-12T11:50:29.061Z,1024.55
2019-05-12T11:51:30.435Z,1024.64
2019-05-12T11:52:29.074Z,1024.65
2019-05-12T11:53:30.628Z,1024.63
2019-05-12T11:54:29.080Z,1024.60
2019-05-12T11:55:31.586Z,1024.59
2019-05-12T11:56:29.086Z,1024.59
2019-05-12T11:57:30.396Z,1024.55
2019-05-12T11:58:29.079Z,1024.58
2019-05-12T11:59:29.086Z,1024.62
2019-05-12T12:00:29.086Z,1024.68
2019-05-12T12:01:29.087Z,1024.68
2019-05-12T12:02:30.720Z,1024.70
2019-05-12T12:03:29.088Z,1024.71
2019-05-12T12:04:29.417Z,1024.65
2019-05-12T12:05:29.100Z,1024.65